LIEO Airport Information

Runway Information
Runway 05 Length 9006 ft width 148 ft Elevation 35 ft Threshold 805 ft Heading 53
Runway 23 Length 9006 ft Width 148 ft Elevation 19 ft Threshold 495 ft Heading 233
Airport Frequencies
Type APP Name OLBIA RADA Frequency 125.95 MHZ
Type ATIS Name ATIS Frequency 113.9 MHZ
Type TWR Name OLBIA TWR Frequency 118.975 MHZ
Airport Navaids
Type VOR-DME Name Olbia Costa Smeralda Frequency 113900 KHZ
Type NDB Name Olbia Costa Smeralda Frequency 357 KHZ
Airport Weather Information & NOTAM
ADDS - METARS form results

(0356 UTC 05 December 2022)
Data provider http://aviationweather.gov/metar/data/
 
METAR text: LIEO 050350Z VRB01KT CAVOK 07/07 Q1018
Conditions at: LIEO (OLBIA/COSTA SMER, IT) observed 0350 UTC 05 December 2022
Temperature: 7.0°C (45°F)
Dewpoint: 7.0°C (45°F) [RH = 100%]
Pressure (altimeter): 30.06 inches Hg (1018.0 mb)
Winds: variable direction winds at 1 MPH (1 knots; 0.5 m/s)
Visibility: 6 or more miles (10+ km)
Ceiling: ceiling and visibility are OK
Clouds: unknown
Weather: no significant weather observed at this time

METAR text: LIEO 050320Z VRB01KT CAVOK 07/07 Q1018
Conditions at: LIEO (OLBIA/COSTA SMER, IT) observed 0320 UTC 05 December 2022
Temperature: 7.0°C (45°F)
Dewpoint: 7.0°C (45°F) [RH = 100%]
Pressure (altimeter): 30.06 inches Hg (1018.0 mb)
Winds: variable direction winds at 1 MPH (1 knots; 0.5 m/s)
Visibility: 6 or more miles (10+ km)
Ceiling: ceiling and visibility are OK
Clouds: unknown
Weather: no significant weather observed at this time

Forecast for: LIEO (OLBIA/COSTA SMER, IT)
Text: TAF LIEO 042300Z 0500/0524 24008KT 9999 SCT025
Forecast period: 0000 UTC 05 December 2022 to 0000 UTC 06 December 2022
Forecast type: FROM: standard forecast or significant change
Winds: from the WSW (240 degrees) at 9 MPH (8 knots; 4.1 m/s)
Visibility: 6 or more miles (10+ km)
Ceiling: at least 12,000 feet AGL
Clouds: scattered clouds at 2500 feet AGL
Weather: no significant weather forecast for this period